Tarragona, Spain
Current Conditions -  °F | °C
As of 12:00 PM on Friday 19 Dec 2014 (Local Time) from LERS Reporting Station
Few Clouds Few Clouds  
Wind Chill: 61°   Ceiling: Unl
Heat Index: 61°   Visibility: 6mi
Dew Point: 50°   Wind: 1mph
Humidity: 68%   Direction: NA
Pressure: 30.36"   Gusts: NA
Location:  41.12°N, 1.25°E
Report Text: LERS 191100Z VRB01KT 9999 FEW020 16/10 Q1028
Loading
Personal Weather Stations






























Interactive Weather Map New forecast layout! Learn more

10-Day Weather Forecast

Advertisements
Track Severe Weather on mobile